sensor_id;sensor_type;location;lat;lon;timestamp;P1;durP1;ratioP1;P2;durP2;ratioP2
14738;SDS011;7461;52.440;13.540;2022-12-20T00:01:52;36.00;;;31.98;;
14738;SDS011;7461;52.440;13.540;2022-12-20T00:04:19;34.83;;;29.77;;
14738;SDS011;7461;52.440;13.540;2022-12-20T00:06:48;34.00;;;30.48;;
14738;SDS011;7461;52.440;13.540;2022-12-20T00:09:15;31.75;;;27.27;;
14738;SDS011;7461;52.440;13.540;2022-12-20T00:11:42;35.72;;;31.25;;
14738;SDS011;7461;52.440;13.540;2022-12-20T00:14:11;34.38;;;30.27;;
14738;SDS011;7461;52.440;13.540;2022-12-20T00:16:39;37.17;;;31.65;;
14738;SDS011;7461;52.440;13.540;2022-12-20T00:19:06;33.92;;;30.45;;
14738;SDS011;7461;52.440;13.540;2022-12-20T00:21:34;32.63;;;29.17;;
14738;SDS011;7461;52.440;13.540;2022-12-20T00:24:02;32.55;;;29.42;;
14738;SDS011;7461;52.440;13.540;2022-12-20T00:26:30;35.97;;;30.30;;
14738;SDS011;7461;52.440;13.540;2022-12-20T00:28:58;33.70;;;30.17;;
14738;SDS011;7461;52.440;13.540;2022-12-20T00:31:26;40.20;;;30.08;;
14738;SDS011;7461;52.440;13.540;2022-12-20T00:33:54;32.85;;;29.33;;
14738;SDS011;7461;52.440;13.540;2022-12-20T00:36:22;35.30;;;30.25;;
14738;SDS011;7461;52.440;13.540;2022-12-20T00:38:50;33.05;;;29.23;;
14738;SDS011;7461;52.440;13.540;2022-12-20T00:41:20;30.00;;;27.05;;
14738;SDS011;7461;52.440;13.540;2022-12-20T00:43:47;36.33;;;30.95;;
14738;SDS011;7461;52.440;13.540;2022-12-20T00:46:15;34.05;;;30.38;;
14738;SDS011;7461;52.440;13.540;2022-12-20T00:48:42;30.35;;;27.08;;
14738;SDS011;7461;52.440;13.540;2022-12-20T00:51:10;31.45;;;28.02;;
14738;SDS011;7461;52.440;13.540;2022-12-20T00:53:38;31.58;;;28.42;;
14738;SDS011;7461;52.440;13.540;2022-12-20T00:56:05;33.80;;;30.27;;
14738;SDS011;7461;52.440;13.540;2022-12-20T00:58:35;28.55;;;25.55;;
14738;SDS011;7461;52.440;13.540;2022-12-20T01:01:03;32.97;;;29.60;;
14738;SDS011;7461;52.440;13.540;2022-12-20T01:03:30;31.42;;;28.05;;
14738;SDS011;7461;52.440;13.540;2022-12-20T01:05:58;30.40;;;27.55;;
14738;SDS011;7461;52.440;13.540;2022-12-20T01:08:27;32.47;;;27.65;;
14738;SDS011;7461;52.440;13.540;2022-12-20T01:10:58;31.48;;;28.13;;
14738;SDS011;7461;52.440;13.540;2022-12-20T01:13:25;30.23;;;27.33;;
14738;SDS011;7461;52.440;13.540;2022-12-20T01:15:54;32.17;;;28.73;;
14738;SDS011;7461;52.440;13.540;2022-12-20T01:18:21;31.42;;;28.15;;
14738;SDS011;7461;52.440;13.540;2022-12-20T01:20:48;30.95;;;27.55;;
14738;SDS011;7461;52.440;13.540;2022-12-20T01:23:15;31.58;;;28.45;;
14738;SDS011;7461;52.440;13.540;2022-12-20T01:25:43;31.85;;;28.70;;
14738;SDS011;7461;52.440;13.540;2022-12-20T01:28:10;28.85;;;26.02;;
14738;SDS011;7461;52.440;13.540;2022-12-20T01:30:38;28.38;;;25.35;;
14738;SDS011;7461;52.440;13.540;2022-12-20T01:33:07;29.05;;;25.95;;
14738;SDS011;7461;52.440;13.540;2022-12-20T01:35:34;30.80;;;27.67;;
14738;SDS011;7461;52.440;13.540;2022-12-20T01:38:01;26.83;;;24.30;;
14738;SDS011;7461;52.440;13.540;2022-12-20T01:40:29;29.73;;;26.65;;
14738;SDS011;7461;52.440;13.540;2022-12-20T01:42:56;27.58;;;24.98;;
14738;SDS011;7461;52.440;13.540;2022-12-20T01:45:24;30.70;;;26.25;;
14738;SDS011;7461;52.440;13.540;2022-12-20T01:47:53;30.60;;;26.88;;
14738;SDS011;7461;52.440;13.540;2022-12-20T01:50:22;28.48;;;25.67;;
14738;SDS011;7461;52.440;13.540;2022-12-20T01:52:50;29.13;;;26.38;;
14738;SDS011;7461;52.440;13.540;2022-12-20T01:55:19;29.00;;;26.25;;
14738;SDS011;7461;52.440;13.540;2022-12-20T01:57:50;27.92;;;25.10;;
14738;SDS011;7461;52.440;13.540;2022-12-20T02:00:18;30.15;;;27.42;;
14738;SDS011;7461;52.440;13.540;2022-12-20T02:02:46;28.25;;;25.55;;
14738;SDS011;7461;52.440;13.540;2022-12-20T02:05:14;27.67;;;25.13;;
14738;SDS011;7461;52.440;13.540;2022-12-20T02:07:43;27.25;;;24.83;;
14738;SDS011;7461;52.440;13.540;2022-12-20T02:10:12;28.98;;;26.10;;
14738;SDS011;7461;52.440;13.540;2022-12-20T02:12:40;28.65;;;25.95;;
14738;SDS011;7461;52.440;13.540;2022-12-20T02:15:12;28.30;;;25.60;;
14738;SDS011;7461;52.440;13.540;2022-12-20T02:17:44;26.42;;;23.88;;
14738;SDS011;7461;52.440;13.540;2022-12-20T02:20:18;26.52;;;24.08;;
14738;SDS011;7461;52.440;13.540;2022-12-20T02:22:55;26.35;;;23.70;;
14738;SDS011;7461;52.440;13.540;2022-12-20T02:25:34;25.73;;;23.05;;
14738;SDS011;7461;52.440;13.540;2022-12-20T02:28:07;25.35;;;23.02;;
14738;SDS011;7461;52.440;13.540;2022-12-20T02:30:42;26.40;;;23.80;;
14738;SDS011;7461;52.440;13.540;2022-12-20T02:33:12;27.02;;;24.27;;
14738;SDS011;7461;52.440;13.540;2022-12-20T02:35:41;27.45;;;24.63;;
14738;SDS011;7461;52.440;13.540;2022-12-20T02:38:23;24.98;;;22.80;;
14738;SDS011;7461;52.440;13.540;2022-12-20T02:40:51;25.38;;;22.83;;
14738;SDS011;7461;52.440;13.540;2022-12-20T02:43:20;27.50;;;24.70;;
14738;SDS011;7461;52.440;13.540;2022-12-20T02:46:03;26.08;;;23.42;;
14738;SDS011;7461;52.440;13.540;2022-12-20T02:48:31;24.70;;;21.52;;
14738;SDS011;7461;52.440;13.540;2022-12-20T02:51:00;23.25;;;21.02;;
14738;SDS011;7461;52.440;13.540;2022-12-20T02:53:28;25.50;;;22.98;;
14738;SDS011;7461;52.440;13.540;2022-12-20T02:55:56;26.38;;;23.85;;
14738;SDS011;7461;52.440;13.540;2022-12-20T02:58:25;27.35;;;24.77;;
14738;SDS011;7461;52.440;13.540;2022-12-20T03:00:55;24.52;;;22.02;;
14738;SDS011;7461;52.440;13.540;2022-12-20T03:03:25;27.20;;;24.48;;
14738;SDS011;7461;52.440;13.540;2022-12-20T03:05:53;25.77;;;23.13;;
14738;SDS011;7461;52.440;13.540;2022-12-20T03:08:21;26.10;;;23.25;;
14738;SDS011;7461;52.440;13.540;2022-12-20T03:10:49;26.50;;;24.13;;
14738;SDS011;7461;52.440;13.540;2022-12-20T03:13:17;24.85;;;22.55;;
14738;SDS011;7461;52.440;13.540;2022-12-20T03:15:44;22.90;;;20.65;;
14738;SDS011;7461;52.440;13.540;2022-12-20T03:18:12;23.25;;;20.98;;
14738;SDS011;7461;52.440;13.540;2022-12-20T03:20:40;24.13;;;21.70;;
14738;SDS011;7461;52.440;13.540;2022-12-20T03:23:08;25.92;;;23.38;;
14738;SDS011;7461;52.440;13.540;2022-12-20T03:25:35;24.25;;;21.92;;
14738;SDS011;7461;52.440;13.540;2022-12-20T03:28:02;25.40;;;22.92;;
14738;SDS011;7461;52.440;13.540;2022-12-20T03:30:30;22.80;;;20.65;;
14738;SDS011;7461;52.440;13.540;2022-12-20T03:32:57;21.67;;;19.60;;
14738;SDS011;7461;52.440;13.540;2022-12-20T03:35:24;23.65;;;21.45;;
14738;SDS011;7461;52.440;13.540;2022-12-20T03:37:53;23.25;;;21.08;;
14738;SDS011;7461;52.440;13.540;2022-12-20T03:40:20;23.92;;;21.70;;
14738;SDS011;7461;52.440;13.540;2022-12-20T03:42:47;23.08;;;20.95;;
14738;SDS011;7461;52.440;13.540;2022-12-20T03:45:15;20.35;;;18.45;;
14738;SDS011;7461;52.440;13.540;2022-12-20T03:47:42;21.88;;;19.80;;
14738;SDS011;7461;52.440;13.540;2022-12-20T03:50:09;24.83;;;22.50;;
14738;SDS011;7461;52.440;13.540;2022-12-20T03:52:37;23.02;;;21.02;;
14738;SDS011;7461;52.440;13.540;2022-12-20T03:55:06;24.58;;;22.27;;
14738;SDS011;7461;52.440;13.540;2022-12-20T03:57:34;21.85;;;19.95;;
14738;SDS011;7461;52.440;13.540;2022-12-20T04:00:02;23.40;;;21.10;;
14738;SDS011;7461;52.440;13.540;2022-12-20T04:02:30;24.08;;;21.85;;
14738;SDS011;7461;52.440;13.540;2022-12-20T04:04:57;22.20;;;20.15;;
14738;SDS011;7461;52.440;13.540;2022-12-20T04:07:25;22.45;;;20.45;;
14738;SDS011;7461;52.440;13.540;2022-12-20T04:09:52;22.42;;;20.27;;
14738;SDS011;7461;52.440;13.540;2022-12-20T04:12:30;21.23;;;19.35;;
14738;SDS011;7461;52.440;13.540;2022-12-20T04:14:58;21.25;;;19.45;;
14738;SDS011;7461;52.440;13.540;2022-12-20T04:17:25;21.85;;;19.67;;
14738;SDS011;7461;52.440;13.540;2022-12-20T04:19:52;21.73;;;19.63;;
14738;SDS011;7461;52.440;13.540;2022-12-20T04:22:20;22.73;;;20.77;;
14738;SDS011;7461;52.440;13.540;2022-12-20T04:24:47;22.85;;;20.58;;
14738;SDS011;7461;52.440;13.540;2022-12-20T04:27:14;21.75;;;19.60;;
14738;SDS011;7461;52.440;13.540;2022-12-20T04:29:43;22.23;;;20.33;;
14738;SDS011;7461;52.440;13.540;2022-12-20T04:32:10;22.23;;;20.20;;
14738;SDS011;7461;52.440;13.540;2022-12-20T04:34:37;19.95;;;17.95;;
14738;SDS011;7461;52.440;13.540;2022-12-20T04:37:04;20.45;;;18.50;;
14738;SDS011;7461;52.440;13.540;2022-12-20T04:39:32;21.55;;;19.45;;
14738;SDS011;7461;52.440;13.540;2022-12-20T04:41:59;22.20;;;20.33;;
14738;SDS011;7461;52.440;13.540;2022-12-20T04:44:26;21.92;;;19.75;;
14738;SDS011;7461;52.440;13.540;2022-12-20T04:46:55;23.42;;;21.35;;
14738;SDS011;7461;52.440;13.540;2022-12-20T04:49:22;21.05;;;19.25;;
14738;SDS011;7461;52.440;13.540;2022-12-20T04:51:49;20.15;;;18.35;;
14738;SDS011;7461;52.440;13.540;2022-12-20T04:54:17;19.60;;;18.15;;
14738;SDS011;7461;52.440;13.540;2022-12-20T04:56:43;21.30;;;19.60;;
14738;SDS011;7461;52.440;13.540;2022-12-20T04:59:10;21.90;;;19.85;;
14738;SDS011;7461;52.440;13.540;2022-12-20T05:01:38;23.83;;;21.38;;
14738;SDS011;7461;52.440;13.540;2022-12-20T05:04:06;20.58;;;18.55;;
14738;SDS011;7461;52.440;13.540;2022-12-20T05:06:34;19.25;;;17.55;;
14738;SDS011;7461;52.440;13.540;2022-12-20T05:09:01;21.15;;;19.25;;
14738;SDS011;7461;52.440;13.540;2022-12-20T05:11:28;24.25;;;21.30;;
14738;SDS011;7461;52.440;13.540;2022-12-20T05:13:55;22.85;;;20.75;;
14738;SDS011;7461;52.440;13.540;2022-12-20T05:16:22;21.23;;;19.10;;
14738;SDS011;7461;52.440;13.540;2022-12-20T05:18:50;22.00;;;20.20;;
14738;SDS011;7461;52.440;13.540;2022-12-20T05:21:20;23.80;;;20.63;;
14738;SDS011;7461;52.440;13.540;2022-12-20T05:24:05;21.50;;;19.58;;
14738;SDS011;7461;52.440;13.540;2022-12-20T05:26:50;20.45;;;18.60;;
14738;SDS011;7461;52.440;13.540;2022-12-20T05:29:17;21.58;;;19.42;;
14738;SDS011;7461;52.440;13.540;2022-12-20T05:31:45;23.15;;;20.92;;
14738;SDS011;7461;52.440;13.540;2022-12-20T05:34:12;21.75;;;19.75;;
14738;SDS011;7461;52.440;13.540;2022-12-20T05:36:41;23.25;;;21.23;;
14738;SDS011;7461;52.440;13.540;2022-12-20T05:39:08;21.20;;;19.10;;
14738;SDS011;7461;52.440;13.540;2022-12-20T05:41:36;22.25;;;20.02;;
14738;SDS011;7461;52.440;13.540;2022-12-20T05:44:05;23.48;;;21.15;;
14738;SDS011;7461;52.440;13.540;2022-12-20T05:46:32;25.30;;;22.38;;
14738;SDS011;7461;52.440;13.540;2022-12-20T05:48:59;23.45;;;21.35;;
14738;SDS011;7461;52.440;13.540;2022-12-20T05:51:27;22.75;;;20.63;;
14738;SDS011;7461;52.440;13.540;2022-12-20T05:53:55;24.60;;;22.08;;
14738;SDS011;7461;52.440;13.540;2022-12-20T05:56:23;21.85;;;20.00;;
14738;SDS011;7461;52.440;13.540;2022-12-20T05:58:50;23.45;;;21.40;;
14738;SDS011;7461;52.440;13.540;2022-12-20T06:01:18;21.10;;;19.25;;
14738;SDS011;7461;52.440;13.540;2022-12-20T06:03:45;22.35;;;20.25;;
14738;SDS011;7461;52.440;13.540;2022-12-20T06:06:12;21.08;;;19.17;;
14738;SDS011;7461;52.440;13.540;2022-12-20T06:08:39;22.15;;;19.95;;
14738;SDS011;7461;52.440;13.540;2022-12-20T06:11:08;22.92;;;20.83;;
14738;SDS011;7461;52.440;13.540;2022-12-20T06:13:35;22.42;;;20.13;;
14738;SDS011;7461;52.440;13.540;2022-12-20T06:16:03;20.55;;;18.67;;
14738;SDS011;7461;52.440;13.540;2022-12-20T06:18:30;22.95;;;21.05;;
14738;SDS011;7461;52.440;13.540;2022-12-20T06:20:57;23.20;;;21.02;;
14738;SDS011;7461;52.440;13.540;2022-12-20T06:23:24;21.25;;;19.13;;
14738;SDS011;7461;52.440;13.540;2022-12-20T06:25:51;23.75;;;21.42;;
14738;SDS011;7461;52.440;13.540;2022-12-20T06:28:20;24.08;;;21.95;;
14738;SDS011;7461;52.440;13.540;2022-12-20T06:30:51;21.00;;;18.90;;
14738;SDS011;7461;52.440;13.540;2022-12-20T06:33:18;24.13;;;21.83;;
14738;SDS011;7461;52.440;13.540;2022-12-20T06:35:45;22.88;;;20.75;;
14738;SDS011;7461;52.440;13.540;2022-12-20T06:38:12;22.75;;;20.40;;
14738;SDS011;7461;52.440;13.540;2022-12-20T06:40:40;20.17;;;18.17;;
14738;SDS011;7461;52.440;13.540;2022-12-20T06:43:07;22.58;;;20.40;;
14738;SDS011;7461;52.440;13.540;2022-12-20T06:45:36;22.73;;;20.52;;
14738;SDS011;7461;52.440;13.540;2022-12-20T06:48:03;22.38;;;20.38;;
14738;SDS011;7461;52.440;13.540;2022-12-20T06:50:30;22.90;;;20.83;;
14738;SDS011;7461;52.440;13.540;2022-12-20T06:52:57;21.95;;;19.95;;
14738;SDS011;7461;52.440;13.540;2022-12-20T06:55:25;23.15;;;21.05;;
14738;SDS011;7461;52.440;13.540;2022-12-20T06:57:52;23.15;;;20.88;;
14738;SDS011;7461;52.440;13.540;2022-12-20T07:00:20;22.48;;;20.17;;
14738;SDS011;7461;52.440;13.540;2022-12-20T07:02:49;21.52;;;19.48;;
14738;SDS011;7461;52.440;13.540;2022-12-20T07:05:16;23.48;;;21.05;;
14738;SDS011;7461;52.440;13.540;2022-12-20T07:07:44;22.73;;;20.63;;
14738;SDS011;7461;52.440;13.540;2022-12-20T07:10:11;24.38;;;22.27;;
14738;SDS011;7461;52.440;13.540;2022-12-20T07:12:38;22.65;;;20.23;;
14738;SDS011;7461;52.440;13.540;2022-12-20T07:15:06;22.33;;;20.23;;
14738;SDS011;7461;52.440;13.540;2022-12-20T07:17:34;24.42;;;22.02;;
14738;SDS011;7461;52.440;13.540;2022-12-20T07:20:02;24.02;;;21.95;;
14738;SDS011;7461;52.440;13.540;2022-12-20T07:22:31;23.52;;;21.15;;
14738;SDS011;7461;52.440;13.540;2022-12-20T07:24:59;21.70;;;19.83;;
14738;SDS011;7461;52.440;13.540;2022-12-20T07:27:27;22.95;;;20.70;;
14738;SDS011;7461;52.440;13.540;2022-12-20T07:29:54;23.75;;;21.35;;
14738;SDS011;7461;52.440;13.540;2022-12-20T07:32:21;23.60;;;21.50;;
14738;SDS011;7461;52.440;13.540;2022-12-20T07:34:48;21.65;;;19.55;;
14738;SDS011;7461;52.440;13.540;2022-12-20T07:37:17;22.40;;;20.50;;
14738;SDS011;7461;52.440;13.540;2022-12-20T07:39:44;23.95;;;21.85;;
14738;SDS011;7461;52.440;13.540;2022-12-20T07:42:11;24.95;;;22.65;;
14738;SDS011;7461;52.440;13.540;2022-12-20T07:44:38;25.63;;;23.38;;
14738;SDS011;7461;52.440;13.540;2022-12-20T07:47:06;23.70;;;21.35;;
14738;SDS011;7461;52.440;13.540;2022-12-20T07:49:34;25.00;;;21.20;;
14738;SDS011;7461;52.440;13.540;2022-12-20T07:52:01;21.83;;;19.85;;
14738;SDS011;7461;52.440;13.540;2022-12-20T07:54:30;25.58;;;22.92;;
14738;SDS011;7461;52.440;13.540;2022-12-20T07:56:59;24.50;;;22.15;;
14738;SDS011;7461;52.440;13.540;2022-12-20T07:59:29;22.40;;;20.17;;
14738;SDS011;7461;52.440;13.540;2022-12-20T08:02:00;24.33;;;22.08;;
14738;SDS011;7461;52.440;13.540;2022-12-20T08:04:30;25.15;;;22.73;;
14738;SDS011;7461;52.440;13.540;2022-12-20T08:06:58;21.70;;;19.80;;
14738;SDS011;7461;52.440;13.540;2022-12-20T08:09:27;26.05;;;20.83;;
14738;SDS011;7461;52.440;13.540;2022-12-20T08:11:56;24.23;;;21.85;;
14738;SDS011;7461;52.440;13.540;2022-12-20T08:14:24;24.63;;;22.35;;
14738;SDS011;7461;52.440;13.540;2022-12-20T08:16:51;22.60;;;20.40;;
14738;SDS011;7461;52.440;13.540;2022-12-20T08:19:19;25.27;;;22.85;;
14738;SDS011;7461;52.440;13.540;2022-12-20T08:21:46;23.30;;;21.10;;
14738;SDS011;7461;52.440;13.540;2022-12-20T08:24:14;23.73;;;21.48;;
14738;SDS011;7461;52.440;13.540;2022-12-20T08:26:42;26.15;;;23.88;;
14738;SDS011;7461;52.440;13.540;2022-12-20T08:29:10;25.45;;;22.85;;
14738;SDS011;7461;52.440;13.540;2022-12-20T08:31:37;23.23;;;21.27;;
14738;SDS011;7461;52.440;13.540;2022-12-20T08:34:06;25.55;;;23.30;;
14738;SDS011;7461;52.440;13.540;2022-12-20T08:36:33;24.50;;;22.17;;
14738;SDS011;7461;52.440;13.540;2022-12-20T08:39:00;25.75;;;23.30;;
14738;SDS011;7461;52.440;13.540;2022-12-20T08:41:28;23.67;;;21.58;;
14738;SDS011;7461;52.440;13.540;2022-12-20T08:43:55;23.85;;;21.42;;
14738;SDS011;7461;52.440;13.540;2022-12-20T08:46:23;24.15;;;22.15;;
14738;SDS011;7461;52.440;13.540;2022-12-20T08:48:51;24.45;;;22.15;;
14738;SDS011;7461;52.440;13.540;2022-12-20T08:51:18;22.90;;;20.85;;
14738;SDS011;7461;52.440;13.540;2022-12-20T08:53:45;22.63;;;20.45;;
14738;SDS011;7461;52.440;13.540;2022-12-20T08:56:13;24.67;;;22.10;;
14738;SDS011;7461;52.440;13.540;2022-12-20T08:58:41;26.48;;;23.77;;
14738;SDS011;7461;52.440;13.540;2022-12-20T09:01:09;23.50;;;21.15;;
14738;SDS011;7461;52.440;13.540;2022-12-20T09:03:38;25.65;;;23.25;;
14738;SDS011;7461;52.440;13.540;2022-12-20T09:06:06;23.08;;;21.08;;
14738;SDS011;7461;52.440;13.540;2022-12-20T09:08:33;24.85;;;22.50;;
14738;SDS011;7461;52.440;13.540;2022-12-20T09:11:04;23.27;;;20.92;;
14738;SDS011;7461;52.440;13.540;2022-12-20T09:13:32;22.25;;;20.05;;
14738;SDS011;7461;52.440;13.540;2022-12-20T09:15:59;24.45;;;22.15;;
14738;SDS011;7461;52.440;13.540;2022-12-20T09:18:27;25.02;;;22.63;;
14738;SDS011;7461;52.440;13.540;2022-12-20T09:20:57;23.60;;;20.08;;
14738;SDS011;7461;52.440;13.540;2022-12-20T09:23:25;25.33;;;22.67;;
14738;SDS011;7461;52.440;13.540;2022-12-20T09:25:52;26.02;;;23.45;;
14738;SDS011;7461;52.440;13.540;2022-12-20T09:28:19;25.67;;;23.33;;
14738;SDS011;7461;52.440;13.540;2022-12-20T09:30:46;24.00;;;21.52;;
14738;SDS011;7461;52.440;13.540;2022-12-20T09:33:13;25.98;;;21.98;;
14738;SDS011;7461;52.440;13.540;2022-12-20T09:35:43;26.17;;;23.75;;
14738;SDS011;7461;52.440;13.540;2022-12-20T09:38:12;26.02;;;23.45;;
14738;SDS011;7461;52.440;13.540;2022-12-20T09:40:43;23.50;;;21.33;;
14738;SDS011;7461;52.440;13.540;2022-12-20T09:43:10;26.10;;;23.75;;
14738;SDS011;7461;52.440;13.540;2022-12-20T09:45:38;26.52;;;24.00;;
14738;SDS011;7461;52.440;13.540;2022-12-20T09:48:05;25.77;;;23.25;;
14738;SDS011;7461;52.440;13.540;2022-12-20T09:50:39;25.42;;;23.30;;
14738;SDS011;7461;52.440;13.540;2022-12-20T09:53:16;23.80;;;21.38;;
14738;SDS011;7461;52.440;13.540;2022-12-20T09:55:47;24.55;;;22.13;;
14738;SDS011;7461;52.440;13.540;2022-12-20T09:58:29;27.08;;;24.27;;
14738;SDS011;7461;52.440;13.540;2022-12-20T10:00:56;26.52;;;23.95;;
14738;SDS011;7461;52.440;13.540;2022-12-20T10:03:25;23.83;;;21.40;;
14738;SDS011;7461;52.440;13.540;2022-12-20T10:05:53;25.98;;;23.52;;
14738;SDS011;7461;52.440;13.540;2022-12-20T10:08:30;27.50;;;24.52;;
14738;SDS011;7461;52.440;13.540;2022-12-20T10:11:04;24.85;;;22.42;;
14738;SDS011;7461;52.440;13.540;2022-12-20T10:13:37;24.15;;;21.58;;
14738;SDS011;7461;52.440;13.540;2022-12-20T10:16:12;24.13;;;21.80;;
14738;SDS011;7461;52.440;13.540;2022-12-20T10:18:47;25.63;;;23.05;;
14738;SDS011;7461;52.440;13.540;2022-12-20T10:21:18;24.48;;;22.20;;
14738;SDS011;7461;52.440;13.540;2022-12-20T10:23:52;26.70;;;24.13;;
14738;SDS011;7461;52.440;13.540;2022-12-20T10:26:23;24.70;;;22.23;;
14738;SDS011;7461;52.440;13.540;2022-12-20T10:28:50;23.58;;;21.30;;
14738;SDS011;7461;52.440;13.540;2022-12-20T10:31:17;23.65;;;21.33;;
14738;SDS011;7461;52.440;13.540;2022-12-20T10:33:45;23.02;;;20.77;;
14738;SDS011;7461;52.440;13.540;2022-12-20T10:36:19;24.65;;;22.38;;
14738;SDS011;7461;52.440;13.540;2022-12-20T10:38:48;26.17;;;23.73;;
14738;SDS011;7461;52.440;13.540;2022-12-20T10:41:18;26.33;;;23.70;;
14738;SDS011;7461;52.440;13.540;2022-12-20T10:43:46;25.25;;;22.83;;
14738;SDS011;7461;52.440;13.540;2022-12-20T10:46:14;23.67;;;21.42;;
14738;SDS011;7461;52.440;13.540;2022-12-20T10:48:42;25.00;;;22.80;;
14738;SDS011;7461;52.440;13.540;2022-12-20T10:51:14;24.02;;;21.73;;
14738;SDS011;7461;52.440;13.540;2022-12-20T10:53:55;21.85;;;20.02;;
14738;SDS011;7461;52.440;13.540;2022-12-20T10:56:24;23.38;;;21.40;;
14738;SDS011;7461;52.440;13.540;2022-12-20T10:58:54;24.38;;;22.02;;
14738;SDS011;7461;52.440;13.540;2022-12-20T11:01:22;24.70;;;22.42;;
14738;SDS011;7461;52.440;13.540;2022-12-20T11:03:54;23.42;;;21.52;;
14738;SDS011;7461;52.440;13.540;2022-12-20T11:06:23;22.40;;;20.23;;
14738;SDS011;7461;52.440;13.540;2022-12-20T11:08:50;25.42;;;23.15;;
14738;SDS011;7461;52.440;13.540;2022-12-20T11:11:19;21.42;;;19.48;;
14738;SDS011;7461;52.440;13.540;2022-12-20T11:13:48;20.50;;;18.73;;
14738;SDS011;7461;52.440;13.540;2022-12-20T11:16:27;21.77;;;19.88;;
14738;SDS011;7461;52.440;13.540;2022-12-20T11:18:59;22.20;;;20.30;;
14738;SDS011;7461;52.440;13.540;2022-12-20T11:21:30;23.52;;;21.40;;
14738;SDS011;7461;52.440;13.540;2022-12-20T11:24:01;21.65;;;19.67;;
14738;SDS011;7461;52.440;13.540;2022-12-20T11:26:34;20.58;;;18.70;;
14738;SDS011;7461;52.440;13.540;2022-12-20T11:29:09;21.60;;;19.42;;
14738;SDS011;7461;52.440;13.540;2022-12-20T11:31:43;19.25;;;17.58;;
14738;SDS011;7461;52.440;13.540;2022-12-20T11:34:15;20.50;;;18.88;;
14738;SDS011;7461;52.440;13.540;2022-12-20T11:36:50;20.83;;;19.20;;
14738;SDS011;7461;52.440;13.540;2022-12-20T11:39:22;21.98;;;19.80;;
14738;SDS011;7461;52.440;13.540;2022-12-20T11:41:54;20.73;;;18.98;;
14738;SDS011;7461;52.440;13.540;2022-12-20T11:44:28;20.65;;;18.83;;
14738;SDS011;7461;52.440;13.540;2022-12-20T11:47:02;21.13;;;19.00;;
14738;SDS011;7461;52.440;13.540;2022-12-20T11:52:16;19.48;;;17.48;;
14738;SDS011;7461;52.440;13.540;2022-12-20T11:54:46;19.98;;;18.17;;
14738;SDS011;7461;52.440;13.540;2022-12-20T11:57:15;22.27;;;20.27;;
14738;SDS011;7461;52.440;13.540;2022-12-20T11:59:46;20.25;;;18.27;;
14738;SDS011;7461;52.440;13.540;2022-12-20T12:02:15;21.48;;;19.50;;
14738;SDS011;7461;52.440;13.540;2022-12-20T12:04:45;19.77;;;17.98;;
14738;SDS011;7461;52.440;13.540;2022-12-20T12:07:15;20.83;;;18.58;;
14738;SDS011;7461;52.440;13.540;2022-12-20T12:09:45;19.27;;;17.55;;
14738;SDS011;7461;52.440;13.540;2022-12-20T12:12:16;20.95;;;18.95;;
14738;SDS011;7461;52.440;13.540;2022-12-20T12:14:49;20.45;;;18.75;;
14738;SDS011;7461;52.440;13.540;2022-12-20T12:17:20;19.92;;;18.15;;
14738;SDS011;7461;52.440;13.540;2022-12-20T12:19:50;21.13;;;19.13;;
14738;SDS011;7461;52.440;13.540;2022-12-20T12:22:21;18.33;;;16.80;;
14738;SDS011;7461;52.440;13.540;2022-12-20T12:24:50;19.08;;;17.50;;
14738;SDS011;7461;52.440;13.540;2022-12-20T12:27:21;18.25;;;16.67;;
14738;SDS011;7461;52.440;13.540;2022-12-20T12:29:50;18.45;;;16.88;;
14738;SDS011;7461;52.440;13.540;2022-12-20T12:32:22;18.25;;;16.70;;
14738;SDS011;7461;52.440;13.540;2022-12-20T12:34:53;20.33;;;18.63;;
14738;SDS011;7461;52.440;13.540;2022-12-20T12:37:36;20.88;;;19.13;;
14738;SDS011;7461;52.440;13.540;2022-12-20T12:45:44;21.63;;;19.80;;
14738;SDS011;7461;52.440;13.540;2022-12-20T12:48:13;20.50;;;18.60;;
14738;SDS011;7461;52.440;13.540;2022-12-20T12:50:42;21.70;;;19.90;;
14738;SDS011;7461;52.440;13.540;2022-12-20T12:53:11;23.60;;;21.60;;
14738;SDS011;7461;52.440;13.540;2022-12-20T12:55:43;19.42;;;17.63;;
14738;SDS011;7461;52.440;13.540;2022-12-20T13:00:57;21.15;;;18.88;;
14738;SDS011;7461;52.440;13.540;2022-12-20T13:03:35;22.90;;;20.60;;
14738;SDS011;7461;52.440;13.540;2022-12-20T13:08:47;22.95;;;20.88;;
14738;SDS011;7461;52.440;13.540;2022-12-20T13:11:27;21.63;;;19.65;;
14738;SDS011;7461;52.440;13.540;2022-12-20T13:14:09;22.73;;;20.80;;
14738;SDS011;7461;52.440;13.540;2022-12-20T13:16:38;22.42;;;20.40;;
14738;SDS011;7461;52.440;13.540;2022-12-20T13:19:10;24.48;;;22.33;;
14738;SDS011;7461;52.440;13.540;2022-12-20T13:21:38;24.38;;;21.92;;
14738;SDS011;7461;52.440;13.540;2022-12-20T13:32:55;18.38;;;16.70;;
14738;SDS011;7461;52.440;13.540;2022-12-20T13:35:41;22.25;;;20.40;;
14738;SDS011;7461;52.440;13.540;2022-12-20T13:40:56;20.67;;;18.98;;
14738;SDS011;7461;52.440;13.540;2022-12-20T13:43:25;21.65;;;19.63;;
14738;SDS011;7461;52.440;13.540;2022-12-20T13:45:54;22.05;;;20.00;;
14738;SDS011;7461;52.440;13.540;2022-12-20T13:48:26;21.85;;;19.88;;
14738;SDS011;7461;52.440;13.540;2022-12-20T13:50:54;19.27;;;17.67;;
14738;SDS011;7461;52.440;13.540;2022-12-20T13:53:23;21.20;;;19.20;;
14738;SDS011;7461;52.440;13.540;2022-12-20T13:55:51;22.33;;;20.33;;
14738;SDS011;7461;52.440;13.540;2022-12-20T13:58:19;24.75;;;22.58;;
14738;SDS011;7461;52.440;13.540;2022-12-20T14:00:47;21.95;;;19.98;;
14738;SDS011;7461;52.440;13.540;2022-12-20T14:03:24;22.48;;;20.20;;
14738;SDS011;7461;52.440;13.540;2022-12-20T14:05:54;22.02;;;19.85;;
14738;SDS011;7461;52.440;13.540;2022-12-20T14:08:23;22.23;;;20.08;;
14738;SDS011;7461;52.440;13.540;2022-12-20T14:10:52;20.88;;;19.02;;
14738;SDS011;7461;52.440;13.540;2022-12-20T14:13:20;21.92;;;19.70;;
14738;SDS011;7461;52.440;13.540;2022-12-20T14:15:48;25.75;;;21.50;;
14738;SDS011;7461;52.440;13.540;2022-12-20T14:18:16;20.80;;;18.80;;
14738;SDS011;7461;52.440;13.540;2022-12-20T14:20:44;20.60;;;18.70;;
14738;SDS011;7461;52.440;13.540;2022-12-20T14:23:13;21.90;;;20.00;;
14738;SDS011;7461;52.440;13.540;2022-12-20T14:25:43;21.77;;;19.98;;
14738;SDS011;7461;52.440;13.540;2022-12-20T14:28:15;23.73;;;21.42;;
14738;SDS011;7461;52.440;13.540;2022-12-20T14:30:44;20.40;;;18.60;;
14738;SDS011;7461;52.440;13.540;2022-12-20T14:33:18;20.15;;;18.35;;
14738;SDS011;7461;52.440;13.540;2022-12-20T14:35:46;21.48;;;19.20;;
14738;SDS011;7461;52.440;13.540;2022-12-20T14:38:20;19.67;;;17.88;;
14738;SDS011;7461;52.440;13.540;2022-12-20T14:40:47;20.98;;;19.17;;
14738;SDS011;7461;52.440;13.540;2022-12-20T14:43:15;21.92;;;19.42;;
14738;SDS011;7461;52.440;13.540;2022-12-20T14:45:42;20.17;;;18.42;;
14738;SDS011;7461;52.440;13.540;2022-12-20T14:48:13;23.08;;;20.83;;
14738;SDS011;7461;52.440;13.540;2022-12-20T14:50:49;21.00;;;18.90;;
14738;SDS011;7461;52.440;13.540;2022-12-20T14:53:17;21.25;;;18.90;;
14738;SDS011;7461;52.440;13.540;2022-12-20T14:55:47;20.75;;;18.92;;
14738;SDS011;7461;52.440;13.540;2022-12-20T14:58:22;22.98;;;19.35;;